createdAt,value
2019-03-24T00:00:04.679Z,0.2
2019-03-24T00:00:16.450Z,0.1
2019-03-24T00:00:28.226Z,0.1
2019-03-24T00:00:40.014Z,0.1
2019-03-24T00:00:51.768Z,0.3
2019-03-24T00:01:03.548Z,0.3
2019-03-24T00:01:15.355Z,0.2
2019-03-24T00:01:27.126Z,0.2
2019-03-24T00:01:41.285Z,0.3
2019-03-24T00:01:51.630Z,0.3
2019-03-24T00:02:03.383Z,0.4
2019-03-24T00:02:15.145Z,0.3
2019-03-24T00:02:26.907Z,0.3
2019-03-24T00:02:38.689Z,0.2
2019-03-24T00:02:50.491Z,0.2
2019-03-24T00:03:02.254Z,0.1
2019-03-24T00:03:13.995Z,0.1
2019-03-24T00:03:25.769Z,0.1
2019-03-24T00:03:37.539Z,0.4
2019-03-24T00:03:49.300Z,0.6
2019-03-24T00:04:01.083Z,0.5
2019-03-24T00:04:12.885Z,0.3
2019-03-24T00:04:24.651Z,0.3
2019-03-24T00:04:36.437Z,0.3
2019-03-24T00:04:48.202Z,0.2
2019-03-24T00:04:59.949Z,0.2
2019-03-24T00:05:11.724Z,0.2
2019-03-24T00:05:23.486Z,0.2
2019-03-24T00:05:35.254Z,0.2
2019-03-24T00:05:47.058Z,0.3
2019-03-24T00:05:58.944Z,0.5
2019-03-24T00:06:10.699Z,0.5
2019-03-24T00:06:22.445Z,0.4
2019-03-24T00:06:34.203Z,0.3
2019-03-24T00:06:45.981Z,0.2
2019-03-24T00:06:57.734Z,0.2
2019-03-24T00:07:09.526Z,0.2
2019-03-24T00:07:21.288Z,0.2
2019-03-24T00:07:33.078Z,0.2
2019-03-24T00:07:44.846Z,0.2
2019-03-24T00:07:56.923Z,0.4
2019-03-24T00:08:08.442Z,0.4
2019-03-24T00:08:20.204Z,0.5
2019-03-24T00:08:31.962Z,0.2
2019-03-24T00:08:43.720Z,0.2
2019-03-24T00:08:55.516Z,0.2
2019-03-24T00:09:07.280Z,0.2
2019-03-24T00:09:19.020Z,0.2
2019-03-24T00:09:30.854Z,0.2
2019-03-24T00:09:42.579Z,0.2
2019-03-24T00:09:54.343Z,0.2
2019-03-24T00:10:06.113Z,0.3
2019-03-24T00:10:17.893Z,0.3
2019-03-24T00:10:29.659Z,0.3
2019-03-24T00:10:41.420Z,0.2
2019-03-24T00:10:53.194Z,0.2
2019-03-24T00:11:04.971Z,0.2
2019-03-24T00:11:16.778Z,0.3
2019-03-24T00:11:28.531Z,0.2
2019-03-24T00:11:40.333Z,0.1
2019-03-24T00:11:52.113Z,0.2
2019-03-24T00:12:03.885Z,0.1
2019-03-24T00:12:15.670Z,0.1
2019-03-24T00:12:27.428Z,0.1
2019-03-24T00:12:39.245Z,0.1
2019-03-24T00:12:51.003Z,0.6
2019-03-24T00:13:02.797Z,0.6
2019-03-24T00:13:14.563Z,0.1
2019-03-24T00:13:26.310Z,0.1
2019-03-24T00:13:38.078Z,0.1
2019-03-24T00:13:49.837Z,0.1
2019-03-24T00:14:01.601Z,0.2
2019-03-24T00:14:13.405Z,0.2
2019-03-24T00:14:25.162Z,0.3
2019-03-24T00:14:36.925Z,0.4
2019-03-24T00:14:48.685Z,0.4
2019-03-24T00:15:00.457Z,0.5
2019-03-24T00:15:12.223Z,0.4
2019-03-24T00:15:26.402Z,0.5
2019-03-24T00:15:36.775Z,0.2
2019-03-24T00:15:48.558Z,0.2
2019-03-24T00:16:00.365Z,0.2
2019-03-24T00:16:12.109Z,0.1
2019-03-24T00:16:23.875Z,0.1
2019-03-24T00:16:35.646Z,0.1
2019-03-24T00:16:47.451Z,0.1
2019-03-24T00:16:59.217Z,0.1
2019-03-24T00:17:11.001Z,0.1
2019-03-24T00:17:22.783Z,0.1
2019-03-24T00:17:34.540Z,0.1
2019-03-24T00:17:46.300Z,0.2
2019-03-24T00:17:58.087Z,0.2
2019-03-24T00:18:09.860Z,0.2
2019-03-24T00:18:21.636Z,0.2
2019-03-24T00:18:33.395Z,0.2
2019-03-24T00:18:45.167Z,0.1
2019-03-24T00:18:56.929Z,0.1
2019-03-24T00:19:08.690Z,0.1
2019-03-24T00:19:20.482Z,0.1
2019-03-24T00:19:32.234Z,0.2
2019-03-24T00:19:43.995Z,0.2
2019-03-24T00:19:55.781Z,0.2
2019-03-24T00:20:09.965Z,0.2
2019-03-24T00:20:19.304Z,0.2
2019-03-24T00:20:31.092Z,0.2
2019-03-24T00:20:42.896Z,0.3
2019-03-24T00:20:54.660Z,0.2
2019-03-24T00:21:06.437Z,0.2
2019-03-24T00:21:18.214Z,0.2
2019-03-24T00:21:29.978Z,0.2
2019-03-24T00:21:41.731Z,0.1
2019-03-24T00:21:53.528Z,0.1
2019-03-24T00:22:05.298Z,0.1
2019-03-24T00:22:17.092Z,0.2
2019-03-24T00:22:28.866Z,0.1
2019-03-24T00:22:40.632Z,0.1
2019-03-24T00:22:52.395Z,0.1
2019-03-24T00:23:04.132Z,0.1
2019-03-24T00:23:15.893Z,0.1
2019-03-24T00:23:27.680Z,0.2
2019-03-24T00:23:39.452Z,0.2
2019-03-24T00:23:51.205Z,0.2
2019-03-24T00:24:02.980Z,0.1
2019-03-24T00:24:14.769Z,0.1
2019-03-24T00:24:26.540Z,0.1
2019-03-24T00:24:38.301Z,0.1
2019-03-24T00:24:50.076Z,0.1
2019-03-24T00:25:01.852Z,0.1
2019-03-24T00:25:13.593Z,0.1
2019-03-24T00:25:25.384Z,0.2
2019-03-24T00:25:37.143Z,0.2
2019-03-24T00:25:48.903Z,0.1
2019-03-24T00:26:00.665Z,0.5
2019-03-24T00:26:12.438Z,0.5
2019-03-24T00:26:24.192Z,0.2
2019-03-24T00:26:35.984Z,0.2
2019-03-24T00:26:47.740Z,0.2
2019-03-24T00:26:59.547Z,0.2
2019-03-24T00:27:11.294Z,0.1
2019-03-24T00:27:23.098Z,0.1
2019-03-24T00:27:34.837Z,0.1
2019-03-24T00:27:46.601Z,0.1
2019-03-24T00:27:58.365Z,0.1
2019-03-24T00:28:10.150Z,0.1
2019-03-24T00:28:21.900Z,0.1
2019-03-24T00:28:33.662Z,0.1
2019-03-24T00:28:45.456Z,0.1
2019-03-24T00:28:57.223Z,0.2
2019-03-24T00:29:08.993Z,0.2
2019-03-24T00:29:20.769Z,0.2
2019-03-24T00:29:32.549Z,0.2
2019-03-24T00:29:44.335Z,0.2
2019-03-24T00:29:56.110Z,0.2
2019-03-24T00:30:12.101Z,0.2
2019-03-24T00:30:23.868Z,0.2
2019-03-24T00:30:35.651Z,0.7
2019-03-24T00:30:47.414Z,0.7
2019-03-24T00:30:59.199Z,0.6
2019-03-24T00:31:10.967Z,0.2
2019-03-24T00:31:22.717Z,0.1
2019-03-24T00:31:34.515Z,0.4
2019-03-24T00:31:46.347Z,0.5
2019-03-24T00:31:58.113Z,0.5
2019-03-24T00:32:09.882Z,0.2
2019-03-24T00:32:21.674Z,0.2
2019-03-24T00:32:34.430Z,0.2
2019-03-24T00:32:46.209Z,0.1
2019-03-24T00:32:57.978Z,0.1
2019-03-24T00:33:09.727Z,0.1
2019-03-24T00:33:21.542Z,0.1
2019-03-24T00:33:33.315Z,0.1
2019-03-24T00:33:45.094Z,0.1
2019-03-24T00:33:56.888Z,0.2
2019-03-24T00:34:08.663Z,0.3
2019-03-24T00:34:20.460Z,0.3
2019-03-24T00:34:32.237Z,0.3
2019-03-24T00:34:44.012Z,0.2
2019-03-24T00:34:55.805Z,0.2
2019-03-24T00:35:07.587Z,0.6
2019-03-24T00:35:19.335Z,0.6
2019-03-24T00:35:31.109Z,0.6
2019-03-24T00:35:42.887Z,0.2
2019-03-24T00:35:54.669Z,0.1
2019-03-24T00:36:07.417Z,0.3
2019-03-24T00:36:19.190Z,0.3
2019-03-24T00:36:30.963Z,0.1
2019-03-24T00:36:42.772Z,0.2
2019-03-24T00:36:54.546Z,0.2
2019-03-24T00:37:06.317Z,0.4
2019-03-24T00:37:18.085Z,0.4
2019-03-24T00:37:29.839Z,0.2
2019-03-24T00:37:41.614Z,0.2
2019-03-24T00:37:53.375Z,0.2
2019-03-24T00:38:05.154Z,0.2
2019-03-24T00:38:16.924Z,0.2
2019-03-24T00:38:28.707Z,0.5
2019-03-24T00:38:40.465Z,0.5
2019-03-24T00:38:52.250Z,0.1
2019-03-24T00:39:04.014Z,0.1
2019-03-24T00:39:15.824Z,0.2
2019-03-24T00:39:27.612Z,0.2
2019-03-24T00:39:39.374Z,0.1
2019-03-24T00:39:51.123Z,0.3
2019-03-24T00:40:02.925Z,0.5
2019-03-24T00:40:14.667Z,0.3
2019-03-24T00:40:26.454Z,0.3
2019-03-24T00:40:38.212Z,0.1
2019-03-24T00:40:50.958Z,0.1
2019-03-24T00:41:02.744Z,0.2
2019-03-24T00:41:14.495Z,0.2
2019-03-24T00:41:26.273Z,0.3
2019-03-24T00:41:38.037Z,0.4
2019-03-24T00:41:49.805Z,0.4
2019-03-24T00:42:01.570Z,0.4
2019-03-24T00:42:13.350Z,0.2
2019-03-24T00:42:25.185Z,0.1
2019-03-24T00:42:36.970Z,0.1
2019-03-24T00:42:48.733Z,0.1
2019-03-24T00:43:00.537Z,0.1
2019-03-24T00:43:12.278Z,0.2
2019-03-24T00:43:24.051Z,0.2
2019-03-24T00:43:35.815Z,0.2
2019-03-24T00:43:47.584Z,0.3
2019-03-24T00:43:59.371Z,0.2
2019-03-24T00:44:11.114Z,0.1
2019-03-24T00:44:22.903Z,0.1
2019-03-24T00:44:34.649Z,0.1
2019-03-24T00:44:46.415Z,0.1
2019-03-24T00:44:58.169Z,0.1
2019-03-24T00:45:09.959Z,0.1
2019-03-24T00:45:21.769Z,0.1
2019-03-24T00:45:36.921Z,0.2
2019-03-24T00:45:46.260Z,0.2
2019-03-24T00:45:58.001Z,0.2
2019-03-24T00:46:09.815Z,0.2
2019-03-24T00:46:21.588Z,0.2
2019-03-24T00:46:33.350Z,0.2
2019-03-24T00:46:45.123Z,0.2
2019-03-24T00:46:56.867Z,0.1
2019-03-24T00:47:08.653Z,0.1
2019-03-24T00:47:20.441Z,0.2
2019-03-24T00:47:32.227Z,0.2
2019-03-24T00:47:44.012Z,0.2
2019-03-24T00:47:55.795Z,0.2
2019-03-24T00:48:07.570Z,0.2
2019-03-24T00:48:19.323Z,0.2
2019-03-24T00:48:31.089Z,0.2
2019-03-24T00:48:42.874Z,0.2
2019-03-24T00:48:54.652Z,0.1
2019-03-24T00:49:06.414Z,0.1
2019-03-24T00:49:18.170Z,0.1
2019-03-24T00:49:29.955Z,0.2
2019-03-24T00:49:41.778Z,0.2
2019-03-24T00:49:53.518Z,0.4
2019-03-24T00:50:05.270Z,0.4
2019-03-24T00:50:17.054Z,0.4
2019-03-24T00:50:28.818Z,0.3
2019-03-24T00:50:40.601Z,0.1
2019-03-24T00:50:52.384Z,0.1
2019-03-24T00:51:04.148Z,0.1
2019-03-24T00:51:15.929Z,0.1
2019-03-24T00:51:27.669Z,0.2
2019-03-24T00:51:39.448Z,0.3
2019-03-24T00:51:51.194Z,0.3
2019-03-24T00:52:02.966Z,0.2
2019-03-24T00:52:14.752Z,0.3
2019-03-24T00:52:26.501Z,0.3
2019-03-24T00:52:38.290Z,0.4
2019-03-24T00:52:50.033Z,0.3
2019-03-24T00:53:01.808Z,0.2
2019-03-24T00:53:13.599Z,0.2
2019-03-24T00:53:25.381Z,0.1
2019-03-24T00:53:37.194Z,0.1
2019-03-24T00:53:48.953Z,0.2
2019-03-24T00:54:00.748Z,0.2
2019-03-24T00:54:12.513Z,1
2019-03-24T00:54:24.275Z,1
2019-03-24T00:54:36.031Z,0.1
2019-03-24T00:54:47.798Z,0.6
2019-03-24T00:54:59.570Z,0.7
2019-03-24T00:55:11.328Z,0.6
2019-03-24T00:55:23.111Z,0.2
2019-03-24T00:55:34.907Z,0.2
2019-03-24T00:55:46.686Z,0.2
2019-03-24T00:55:58.482Z,0.1
2019-03-24T00:56:10.255Z,0.1
2019-03-24T00:56:22.038Z,0.1
2019-03-24T00:56:33.820Z,0.1
2019-03-24T00:56:45.587Z,0.2
2019-03-24T00:56:57.361Z,0.2
2019-03-24T00:57:09.136Z,0.2
2019-03-24T00:57:20.916Z,0.4
2019-03-24T00:57:32.690Z,0.4
2019-03-24T00:57:44.454Z,0.3
2019-03-24T00:57:56.213Z,0.3
2019-03-24T00:58:08.999Z,0.3
2019-03-24T00:58:20.747Z,0.2
2019-03-24T00:58:32.508Z,0.2
2019-03-24T00:58:44.251Z,0.1
2019-03-24T00:58:56.040Z,0.1
2019-03-24T00:59:08.816Z,0.1
2019-03-24T00:59:20.552Z,0.4
2019-03-24T00:59:32.324Z,0.5
2019-03-24T00:59:44.106Z,0.2
2019-03-24T00:59:55.864Z,0.2
2019-03-24T01:00:07.618Z,0.2
2019-03-24T01:00:20.388Z,0.2
2019-03-24T01:00:32.171Z,0.2
2019-03-24T01:00:43.937Z,0.2
2019-03-24T01:00:55.706Z,0.2
2019-03-24T01:01:07.462Z,0.1
2019-03-24T01:01:19.257Z,0.1
2019-03-24T01:01:31.031Z,0.1
2019-03-24T01:01:42.804Z,0.1
2019-03-24T01:01:54.564Z,0.2
2019-03-24T01:02:06.310Z,0.1
2019-03-24T01:02:18.075Z,0.2
2019-03-24T01:02:29.844Z,0.2
2019-03-24T01:02:41.598Z,0.2
2019-03-24T01:02:53.367Z,0.2
2019-03-24T01:03:05.129Z,0.3
2019-03-24T01:03:16.892Z,0.3
2019-03-24T01:03:28.646Z,0.2
2019-03-24T01:03:40.413Z,0.1
2019-03-24T01:03:52.161Z,0.2
2019-03-24T01:04:03.931Z,0.2
2019-03-24T01:04:15.714Z,0.1
2019-03-24T01:04:27.485Z,0.1
2019-03-24T01:04:39.412Z,0.1
2019-03-24T01:04:51.171Z,0.1
2019-03-24T01:05:02.939Z,0.2
2019-03-24T01:05:14.682Z,0.3
2019-03-24T01:05:26.474Z,0.3
2019-03-24T01:05:38.215Z,0.3
2019-03-24T01:05:49.975Z,0.2
2019-03-24T01:06:01.961Z,1
2019-03-24T01:06:13.462Z,0.9
2019-03-24T01:06:25.273Z,0.9
2019-03-24T01:06:37.040Z,0.1
2019-03-24T01:06:48.810Z,0.1
2019-03-24T01:07:00.603Z,0.1
2019-03-24T01:07:12.371Z,0.1
2019-03-24T01:07:24.147Z,0.1
2019-03-24T01:07:35.915Z,0.1
2019-03-24T01:07:47.687Z,0.2
2019-03-24T01:07:59.477Z,0.2
2019-03-24T01:08:11.221Z,0.2
2019-03-24T01:08:22.975Z,0.2
2019-03-24T01:08:34.749Z,0.2
2019-03-24T01:08:46.523Z,0.3
2019-03-24T01:08:58.305Z,0.2
2019-03-24T01:09:10.086Z,0.2
2019-03-24T01:09:21.842Z,0.3
2019-03-24T01:09:33.638Z,0.3
2019-03-24T01:09:45.406Z,0.2
2019-03-24T01:09:57.188Z,0.1
2019-03-24T01:10:08.971Z,0.1
2019-03-24T01:10:20.728Z,0.1
2019-03-24T01:10:32.518Z,0.3
2019-03-24T01:10:44.278Z,0.3
2019-03-24T01:10:56.041Z,0.2
2019-03-24T01:11:07.835Z,0.4
2019-03-24T01:11:19.592Z,0.5
2019-03-24T01:11:31.375Z,0.4
2019-03-24T01:11:43.131Z,0.1
2019-03-24T01:11:54.893Z,0.1
2019-03-24T01:12:06.665Z,0.1
2019-03-24T01:12:18.446Z,0.1
2019-03-24T01:12:30.210Z,0.1
2019-03-24T01:12:41.973Z,0.1
2019-03-24T01:12:53.741Z,0.2
2019-03-24T01:13:05.504Z,1.6
2019-03-24T01:13:17.263Z,1.9
2019-03-24T01:13:29.018Z,2
2019-03-24T01:13:40.796Z,0.4
2019-03-24T01:13:52.566Z,0.1
2019-03-24T01:14:04.327Z,0.1
2019-03-24T01:14:16.116Z,0.2
2019-03-24T01:14:27.876Z,0.2
2019-03-24T01:14:39.635Z,0.1
2019-03-24T01:14:51.433Z,0.1
2019-03-24T01:15:03.196Z,0.2
2019-03-24T01:15:14.996Z,0.2
2019-03-24T01:15:26.776Z,0.5
2019-03-24T01:15:47.274Z,0.5
2019-03-24T01:15:51.245Z,0.6
2019-03-24T01:16:02.994Z,0.1
2019-03-24T01:16:14.739Z,0.2
2019-03-24T01:16:26.511Z,0.3
2019-03-24T01:16:38.268Z,0.3
2019-03-24T01:16:50.029Z,0.2
2019-03-24T01:17:01.826Z,0.2
2019-03-24T01:17:13.580Z,0.2
2019-03-24T01:17:25.355Z,0.2
2019-03-24T01:17:37.155Z,0.3
2019-03-24T01:17:48.918Z,0.3
2019-03-24T01:18:01.708Z,0.2
2019-03-24T01:18:13.451Z,0.1
2019-03-24T01:18:25.235Z,0.1
2019-03-24T01:18:37.000Z,0.1
2019-03-24T01:18:48.755Z,0.2
2019-03-24T01:19:00.528Z,0.2
2019-03-24T01:19:12.300Z,0.2
2019-03-24T01:19:24.070Z,0.1
2019-03-24T01:19:35.852Z,0.1
2019-03-24T01:19:47.627Z,0.1
2019-03-24T01:19:59.553Z,0.3
2019-03-24T01:20:11.293Z,0.5
2019-03-24T01:20:23.081Z,0.5
2019-03-24T01:20:34.826Z,0.3
2019-03-24T01:20:46.627Z,0.3
2019-03-24T01:20:58.420Z,0.1
2019-03-24T01:21:10.187Z,0.1
2019-03-24T01:21:21.944Z,0.2
2019-03-24T01:21:33.709Z,0.2
2019-03-24T01:21:45.461Z,0.2
2019-03-24T01:21:57.213Z,0.2
2019-03-24T01:22:08.981Z,0.2
2019-03-24T01:22:20.759Z,0.2
2019-03-24T01:22:32.520Z,0.2
2019-03-24T01:22:44.304Z,0.2
2019-03-24T01:22:56.107Z,0.3
2019-03-24T01:23:07.859Z,0.2
2019-03-24T01:23:19.628Z,0.3
2019-03-24T01:23:31.416Z,0.2
2019-03-24T01:23:43.177Z,0.1
2019-03-24T01:23:54.930Z,0.2
2019-03-24T01:24:06.723Z,0.2
2019-03-24T01:24:18.477Z,0.2
2019-03-24T01:24:30.249Z,0.2
2019-03-24T01:24:42.015Z,0.2
2019-03-24T01:24:53.799Z,0.2
2019-03-24T01:25:05.612Z,0.2
2019-03-24T01:25:17.381Z,0.2
2019-03-24T01:25:29.165Z,0.2
2019-03-24T01:25:40.940Z,0.2
2019-03-24T01:25:52.708Z,0.2
2019-03-24T01:26:04.467Z,0.2
2019-03-24T01:26:16.254Z,0.1
2019-03-24T01:26:28.045Z,0.2
2019-03-24T01:26:39.817Z,0.1
2019-03-24T01:26:51.564Z,0.2
2019-03-24T01:27:03.339Z,0.1
2019-03-24T01:27:15.085Z,0.2
2019-03-24T01:27:26.834Z,0.3
2019-03-24T01:27:38.578Z,0.4
2019-03-24T01:27:50.329Z,0.3
2019-03-24T01:28:02.090Z,0.2
2019-03-24T01:28:14.857Z,0.2
2019-03-24T01:28:26.601Z,0.2
2019-03-24T01:28:38.385Z,0.2
2019-03-24T01:28:50.184Z,0.2
2019-03-24T01:29:01.958Z,0.2
2019-03-24T01:29:13.725Z,0.2
2019-03-24T01:29:25.478Z,0.2
2019-03-24T01:29:37.259Z,0.2
2019-03-24T01:29:49.028Z,0.1
2019-03-24T01:30:00.840Z,0.2
2019-03-24T01:30:12.623Z,0.2
2019-03-24T01:30:24.373Z,0.2
2019-03-24T01:30:36.165Z,0.1
2019-03-24T01:30:47.947Z,0.2
2019-03-24T01:30:59.735Z,0.2
2019-03-24T01:31:11.525Z,0.1
2019-03-24T01:31:24.311Z,0.1
2019-03-24T01:31:36.086Z,0.1
2019-03-24T01:31:47.841Z,0.2
2019-03-24T01:31:59.601Z,0.2
2019-03-24T01:32:11.383Z,0.2
2019-03-24T01:32:23.140Z,0.1
2019-03-24T01:32:34.908Z,0.1
2019-03-24T01:32:46.694Z,0.1
2019-03-24T01:32:58.466Z,0.1
2019-03-24T01:33:10.240Z,0.1
2019-03-24T01:33:22.027Z,0.1
2019-03-24T01:33:33.803Z,0.1
2019-03-24T01:33:45.557Z,0.3
2019-03-24T01:33:57.326Z,0.4
2019-03-24T01:34:09.100Z,0.2
2019-03-24T01:34:20.873Z,0.2
2019-03-24T01:34:32.649Z,0.1
2019-03-24T01:34:44.454Z,0.1
2019-03-24T01:34:56.213Z,0.2
2019-03-24T01:35:08.004Z,0.2
2019-03-24T01:35:19.799Z,0.2
2019-03-24T01:35:31.546Z,0.2
2019-03-24T01:35:43.348Z,0.2
2019-03-24T01:35:55.098Z,0.3
2019-03-24T01:36:06.873Z,0.3
2019-03-24T01:36:20.044Z,0.2
2019-03-24T01:36:31.804Z,0.1
2019-03-24T01:36:43.580Z,0.1
2019-03-24T01:36:55.374Z,0.1
2019-03-24T01:37:07.139Z,0.1
2019-03-24T01:37:18.960Z,0.1
2019-03-24T01:37:30.721Z,0.1
2019-03-24T01:37:42.515Z,0.1
2019-03-24T01:37:54.301Z,0.1
2019-03-24T01:38:06.086Z,0.2
2019-03-24T01:38:17.862Z,0.2
2019-03-24T01:38:29.601Z,0.2
2019-03-24T01:38:41.375Z,0.2
2019-03-24T01:38:53.134Z,0.2
2019-03-24T01:39:04.891Z,0.2
2019-03-24T01:39:16.700Z,0.1
2019-03-24T01:39:28.466Z,0.2
2019-03-24T01:39:40.219Z,0.2
2019-03-24T01:39:51.995Z,0.2
2019-03-24T01:40:03.761Z,0.1
2019-03-24T01:40:15.535Z,0.1
2019-03-24T01:40:27.317Z,0.2
2019-03-24T01:40:39.090Z,0.2
2019-03-24T01:40:50.909Z,0.2
2019-03-24T01:41:02.692Z,0.1
2019-03-24T01:41:14.449Z,0.1
2019-03-24T01:41:26.204Z,0.2
2019-03-24T01:41:38.000Z,0.2
2019-03-24T01:41:49.761Z,0.2
2019-03-24T01:42:01.521Z,0.2
2019-03-24T01:42:13.290Z,0.1
2019-03-24T01:42:25.049Z,0.2
2019-03-24T01:42:36.840Z,0.2
2019-03-24T01:42:48.595Z,0.2
2019-03-24T01:43:00.368Z,0.1
2019-03-24T01:43:12.150Z,0.1
2019-03-24T01:43:23.968Z,0.1
2019-03-24T01:43:35.737Z,0.1
2019-03-24T01:43:47.505Z,0.1
2019-03-24T01:43:59.268Z,0.1
2019-03-24T01:44:11.035Z,0.1
2019-03-24T01:44:22.809Z,0.2
2019-03-24T01:44:34.568Z,0.2
2019-03-24T01:44:46.339Z,0.2
2019-03-24T01:44:58.087Z,1.4
2019-03-24T01:45:09.842Z,1.3
2019-03-24T01:45:21.625Z,0.6
2019-03-24T01:45:33.402Z,0.5
2019-03-24T01:45:45.145Z,0.1
2019-03-24T01:45:58.724Z,0.1
2019-03-24T01:46:09.642Z,0.1
2019-03-24T01:46:21.422Z,0.1
2019-03-24T01:46:33.211Z,0.1
2019-03-24T01:46:44.969Z,0.2
2019-03-24T01:46:56.758Z,0.2
2019-03-24T01:47:08.641Z,0.1
2019-03-24T01:47:20.397Z,0.1
2019-03-24T01:47:32.190Z,0.1
2019-03-24T01:47:43.948Z,0.1
2019-03-24T01:47:55.745Z,0.2
2019-03-24T01:48:07.528Z,0.2
2019-03-24T01:48:19.295Z,0.2
2019-03-24T01:48:31.045Z,0.1
2019-03-24T01:48:42.834Z,0.1
2019-03-24T01:48:54.608Z,0.1
2019-03-24T01:49:06.364Z,0.1
2019-03-24T01:49:18.132Z,0.1
2019-03-24T01:49:29.899Z,0.1
2019-03-24T01:49:41.700Z,0.1
2019-03-24T01:49:53.467Z,0.2
2019-03-24T01:50:05.226Z,0.2
2019-03-24T01:50:16.969Z,0.1
2019-03-24T01:50:28.747Z,0.2
2019-03-24T01:50:40.522Z,0.2
2019-03-24T01:50:52.276Z,0.2
2019-03-24T01:51:04.051Z,0.1
2019-03-24T01:51:15.803Z,0.1
2019-03-24T01:51:27.566Z,0.1
2019-03-24T01:51:39.323Z,0.1
2019-03-24T01:51:51.067Z,0.3
2019-03-24T01:52:02.857Z,0.3
2019-03-24T01:52:15.667Z,0.2
2019-03-24T01:52:27.448Z,0.1
2019-03-24T01:52:39.228Z,0.2
2019-03-24T01:52:50.998Z,0.2
2019-03-24T01:53:02.771Z,0.2
2019-03-24T01:53:14.570Z,0.3
2019-03-24T01:53:26.342Z,0.2
2019-03-24T01:53:38.116Z,0.2
2019-03-24T01:53:49.899Z,0.1
2019-03-24T01:54:01.677Z,0.1
2019-03-24T01:54:13.451Z,0.1
2019-03-24T01:54:25.218Z,0.1
2019-03-24T01:54:36.989Z,0.1
2019-03-24T01:54:48.767Z,0.1
2019-03-24T01:55:00.541Z,0.2
2019-03-24T01:55:12.351Z,0.2
2019-03-24T01:55:24.130Z,0.1
2019-03-24T01:55:35.889Z,0.1
2019-03-24T01:55:47.669Z,0.1
2019-03-24T01:55:59.449Z,0.3
2019-03-24T01:56:11.212Z,0.3
2019-03-24T01:56:22.972Z,0.6
2019-03-24T01:56:34.770Z,0.5
2019-03-24T01:56:46.574Z,0.1
2019-03-24T01:56:58.322Z,0.1
2019-03-24T01:57:10.116Z,0.1
2019-03-24T01:57:21.878Z,0.1
2019-03-24T01:57:33.648Z,0.1
2019-03-24T01:57:45.391Z,0.1
2019-03-24T01:57:57.172Z,0.1
2019-03-24T01:58:08.962Z,0.1
2019-03-24T01:58:20.742Z,0.1
2019-03-24T01:58:32.537Z,0.2
2019-03-24T01:58:44.296Z,0.2
2019-03-24T01:58:56.066Z,0.2
2019-03-24T01:59:07.837Z,0.1
2019-03-24T01:59:19.599Z,0.1
2019-03-24T01:59:31.394Z,0.1
2019-03-24T01:59:43.143Z,0.1
2019-03-24T01:59:54.907Z,0.1
2019-03-24T02:00:06.674Z,0.1
2019-03-24T02:00:18.456Z,0.1
2019-03-24T02:00:30.213Z,0.2
2019-03-24T02:00:41.957Z,0.2
2019-03-24T02:00:53.743Z,0.2
2019-03-24T02:01:05.528Z,0.2
2019-03-24T02:01:17.324Z,0.2
2019-03-24T02:01:29.109Z,0.2
2019-03-24T02:01:40.858Z,0.1
2019-03-24T02:01:52.743Z,0.1
2019-03-24T02:02:04.518Z,0.2
2019-03-24T02:02:16.280Z,0.2
2019-03-24T02:02:28.056Z,0.2
2019-03-24T02:02:39.860Z,0.2
2019-03-24T02:02:51.626Z,0.1
2019-03-24T02:03:03.381Z,0.4
2019-03-24T02:03:15.147Z,0.4
2019-03-24T02:03:26.912Z,0.8
2019-03-24T02:03:38.674Z,0.5
2019-03-24T02:03:50.447Z,0.2
2019-03-24T02:04:02.206Z,0.1
2019-03-24T02:04:13.971Z,0.1
2019-03-24T02:04:25.759Z,0.1
2019-03-24T02:04:37.542Z,0.1
2019-03-24T02:04:49.316Z,0.1
2019-03-24T02:05:01.098Z,0.2
2019-03-24T02:05:12.849Z,0.2
2019-03-24T02:05:24.604Z,0.2
2019-03-24T02:05:36.375Z,0.1
2019-03-24T02:05:48.152Z,0.1
2019-03-24T02:05:59.923Z,0.1
2019-03-24T02:06:11.676Z,0.2
2019-03-24T02:06:23.455Z,0.2
2019-03-24T02:06:35.182Z,0.2
2019-03-24T02:06:46.959Z,0.2
2019-03-24T02:06:58.757Z,0.1
2019-03-24T02:07:10.549Z,0.2
2019-03-24T02:07:22.319Z,0.2
2019-03-24T02:07:34.112Z,0.2
2019-03-24T02:07:45.871Z,0.2
2019-03-24T02:07:57.649Z,0.2
2019-03-24T02:08:09.436Z,0.2
2019-03-24T02:08:21.234Z,0.1
2019-03-24T02:08:32.938Z,0.1
2019-03-24T02:08:44.756Z,0.1
2019-03-24T02:08:57.545Z,0.2
2019-03-24T02:09:09.293Z,0.2
2019-03-24T02:09:21.066Z,0.9
2019-03-24T02:09:32.835Z,0.9
2019-03-24T02:09:44.583Z,0.9
2019-03-24T02:09:56.382Z,0.2
2019-03-24T02:10:08.153Z,0.2
2019-03-24T02:10:19.909Z,0.2
2019-03-24T02:10:31.675Z,0.2
2019-03-24T02:10:43.447Z,0.1
2019-03-24T02:10:55.206Z,0.1
2019-03-24T02:11:06.973Z,0.1
2019-03-24T02:11:18.795Z,0.1
2019-03-24T02:11:30.545Z,0.1
2019-03-24T02:11:42.313Z,0.2
2019-03-24T02:11:55.078Z,0.2
2019-03-24T02:12:06.869Z,0.2
2019-03-24T02:12:18.637Z,0.2
2019-03-24T02:12:30.422Z,0.2
2019-03-24T02:12:42.179Z,0.1
2019-03-24T02:12:53.931Z,0.5
2019-03-24T02:13:05.674Z,0.5
2019-03-24T02:13:17.443Z,0.5
2019-03-24T02:13:29.210Z,0.1
2019-03-24T02:13:40.966Z,0.1
2019-03-24T02:13:52.748Z,0.1
2019-03-24T02:14:04.522Z,0.1
2019-03-24T02:14:16.303Z,0.1
2019-03-24T02:14:28.067Z,0.1
2019-03-24T02:14:39.854Z,0.5
2019-03-24T02:14:51.622Z,0.5
2019-03-24T02:15:03.398Z,0.5
2019-03-24T02:15:15.142Z,0.2
2019-03-24T02:15:26.901Z,0.2
2019-03-24T02:15:38.647Z,0.2
2019-03-24T02:15:50.417Z,0.4
2019-03-24T02:16:09.197Z,0.4
2019-03-24T02:16:14.933Z,0.4
2019-03-24T02:16:26.714Z,0.1
2019-03-24T02:16:38.502Z,0.1
2019-03-24T02:16:50.273Z,0.1
2019-03-24T02:17:02.025Z,0.1
2019-03-24T02:17:13.818Z,0.2
2019-03-24T02:17:25.626Z,0.2
2019-03-24T02:17:37.420Z,0.1
2019-03-24T02:17:49.162Z,0.2
2019-03-24T02:18:00.928Z,0.4
2019-03-24T02:18:12.706Z,1
2019-03-24T02:18:24.474Z,1
2019-03-24T02:18:36.238Z,1.2
2019-03-24T02:18:48.023Z,0.5
2019-03-24T02:18:59.769Z,0.2
2019-03-24T02:19:11.530Z,0.2
2019-03-24T02:19:23.309Z,0.2
2019-03-24T02:19:35.087Z,0.2
2019-03-24T02:19:46.848Z,0.3
2019-03-24T02:19:58.618Z,0.2
2019-03-24T02:20:10.370Z,0.2
2019-03-24T02:20:22.132Z,0.3
2019-03-24T02:20:33.901Z,0.2
2019-03-24T02:20:45.667Z,1.6
2019-03-24T02:20:57.441Z,1.9
2019-03-24T02:21:09.223Z,0.4
2019-03-24T02:21:20.982Z,0.4
2019-03-24T02:21:32.762Z,0.1
2019-03-24T02:21:44.566Z,0.1
2019-03-24T02:21:56.349Z,0.6
2019-03-24T02:22:08.121Z,0.6
2019-03-24T02:22:19.896Z,0.6
2019-03-24T02:22:31.808Z,0.2
2019-03-24T02:22:43.584Z,0.2
2019-03-24T02:22:55.345Z,0.3
2019-03-24T02:23:07.099Z,0.3
2019-03-24T02:23:18.874Z,0.2
2019-03-24T02:23:30.651Z,0.2
2019-03-24T02:23:42.439Z,0.2
2019-03-24T02:23:54.231Z,0.2
2019-03-24T02:24:06.008Z,0.1
2019-03-24T02:24:17.771Z,0.1
2019-03-24T02:24:29.523Z,0.4
2019-03-24T02:24:41.293Z,0.5
2019-03-24T02:24:53.065Z,0.6
2019-03-24T02:25:04.850Z,0.5
2019-03-24T02:25:16.615Z,0.1
2019-03-24T02:25:28.398Z,0.2
2019-03-24T02:25:40.172Z,0.2
2019-03-24T02:25:51.922Z,0.2
2019-03-24T02:26:03.692Z,0.2
2019-03-24T02:26:15.451Z,0.2
2019-03-24T02:26:27.230Z,0.2
2019-03-24T02:26:38.990Z,0.2
2019-03-24T02:26:50.780Z,0.2
2019-03-24T02:27:02.525Z,0.2
2019-03-24T02:27:14.321Z,0.1
2019-03-24T02:27:26.134Z,0.2
2019-03-24T02:27:37.916Z,0.2
2019-03-24T02:27:49.688Z,0.2
2019-03-24T02:28:01.453Z,0.1
2019-03-24T02:28:13.225Z,0.1
2019-03-24T02:28:24.990Z,0.1
2019-03-24T02:28:36.738Z,0.2
2019-03-24T02:28:48.490Z,0.2
2019-03-24T02:29:00.271Z,0.2
2019-03-24T02:29:12.055Z,0.2
2019-03-24T02:29:23.824Z,0.3
2019-03-24T02:29:35.585Z,0.3
2019-03-24T02:29:47.359Z,0.3
2019-03-24T02:29:59.188Z,0.2
2019-03-24T02:30:10.965Z,0.1
2019-03-24T02:30:22.730Z,0.1
2019-03-24T02:30:34.503Z,0.1
2019-03-24T02:30:46.240Z,0.1
2019-03-24T02:30:57.975Z,0.1
2019-03-24T02:31:09.756Z,0.2
2019-03-24T02:31:21.515Z,0.2
2019-03-24T02:31:33.266Z,0.3
2019-03-24T02:31:45.042Z,0.2
2019-03-24T02:31:56.802Z,0.3
2019-03-24T02:32:08.538Z,0.3
2019-03-24T02:32:20.297Z,0.2
2019-03-24T02:32:32.060Z,0.2
2019-03-24T02:32:43.867Z,0.1
2019-03-24T02:32:55.601Z,0.1
2019-03-24T02:33:07.360Z,0.1
2019-03-24T02:33:19.121Z,0.1
2019-03-24T02:33:30.870Z,0.1
2019-03-24T02:33:42.635Z,0.1
2019-03-24T02:33:54.416Z,0.1
2019-03-24T02:34:06.181Z,0.1
2019-03-24T02:34:17.978Z,0.1
2019-03-24T02:34:29.781Z,0.1
2019-03-24T02:34:41.531Z,0.2
2019-03-24T02:34:53.301Z,0.2
2019-03-24T02:35:05.065Z,0.1
2019-03-24T02:35:16.811Z,0.2
2019-03-24T02:35:28.580Z,0.2
2019-03-24T02:35:40.376Z,0.1
2019-03-24T02:35:52.294Z,0.2
2019-03-24T02:36:04.071Z,0.2
2019-03-24T02:36:15.841Z,0.1
2019-03-24T02:36:27.624Z,0.1
2019-03-24T02:36:39.396Z,0.1
2019-03-24T02:36:51.178Z,0.1
2019-03-24T02:37:02.946Z,0.2
2019-03-24T02:37:14.738Z,0.2
2019-03-24T02:37:26.507Z,0.2
2019-03-24T02:37:38.286Z,0.2
2019-03-24T02:37:50.041Z,0.2
2019-03-24T02:38:01.803Z,0.1
2019-03-24T02:38:13.585Z,0.1
2019-03-24T02:38:25.366Z,0.2
2019-03-24T02:38:37.143Z,0.1
2019-03-24T02:38:48.925Z,0.1
2019-03-24T02:39:00.714Z,0.1
2019-03-24T02:39:12.500Z,0.1
2019-03-24T02:39:24.239Z,0.1
2019-03-24T02:39:36.009Z,0.1
2019-03-24T02:39:47.751Z,0.1
2019-03-24T02:39:59.538Z,0.1
2019-03-24T02:40:11.318Z,0.1
2019-03-24T02:40:23.110Z,0.2
2019-03-24T02:40:34.882Z,0.2
2019-03-24T02:40:46.657Z,0.3
2019-03-24T02:40:58.452Z,0.3
2019-03-24T02:41:10.204Z,0.3
2019-03-24T02:41:22.966Z,0.2
2019-03-24T02:41:34.711Z,0.1
2019-03-24T02:41:46.478Z,0.4
2019-03-24T02:41:58.276Z,0.4
2019-03-24T02:42:10.034Z,0.1
2019-03-24T02:42:21.789Z,0.1
2019-03-24T02:42:33.529Z,0.1